Time;durP1;ratioP1;P1;durP2;ratioP2;P2;SDS_P1;SDS_P2;PMS_P1;PMS_P2;Temp;Humidity;BMP_temperature;BMP_pressure;BME280_temperature;BME280_humidity;BME280_pressure;Samples;Min_cycle;Max_cycle;Signal;HPM_P1;HPM_P2
2023/01/26 00:02:20;;;;;;;20.80;12.18;;;0.60;99.90;;;;;;4953667;28;20062;-62
2023/01/26 00:04:47;;;;;;;24.42;12.18;;;0.20;99.90;;;;;;4953320;28;20055;-62
2023/01/26 00:07:14;;;;;;;23.05;12.13;;;0.10;99.90;;;;;;4937451;28;20087;-62
2023/01/26 00:09:41;;;;;;;26.85;12.20;;;0.10;99.90;;;;;;4953585;28;20051;-62
2023/01/26 00:12:08;;;;;;;26.17;13.43;;;0.10;99.90;;;;;;4953759;28;20538;-63
2023/01/26 00:17:27;;;;;;;;;;;0.10;99.90;;;;;;4955180;28;20117;-62
2023/01/26 00:19:56;;;;;;;25.17;12.50;;;0.10;99.90;;;;;;4971855;28;19921;-61
2023/01/26 00:22:23;;;;;;;27.73;14.13;;;0.10;99.90;;;;;;4955238;28;20050;-62
2023/01/26 00:24:50;;;;;;;25.63;12.07;;;0.10;99.90;;;;;;4954467;28;20425;-61
2023/01/26 00:27:17;;;;;;;24.40;12.90;;;0.10;99.90;;;;;;4972428;28;20419;-62
2023/01/26 00:29:45;;;;;;;28.70;14.20;;;0.10;99.90;;;;;;4972245;28;20047;-62
2023/01/26 00:32:11;;;;;;;33.67;14.57;;;0.20;99.90;;;;;;4971431;28;20053;-61
2023/01/26 00:34:40;;;;;;;27.20;13.70;;;0.10;99.90;;;;;;4955010;28;20051;-62
2023/01/26 00:37:07;;;;;;;26.08;13.77;;;0.20;99.90;;;;;;4971295;28;20051;-62
2023/01/26 00:39:34;;;;;;;27.58;14.25;;;0.20;99.90;;;;;;4955495;28;20062;-63
2023/01/26 00:42:08;;;;;;;25.58;13.77;;;0.20;99.90;;;;;;4971947;28;20423;-63
2023/01/26 00:44:38;;;;;;;31.00;15.10;;;0.20;99.90;;;;;;4971318;28;20050;-62
2023/01/26 00:47:07;;;;;;;29.15;15.63;;;0.20;99.90;;;;;;4954573;28;20055;-62
2023/01/26 00:49:34;;;;;;;27.45;13.50;;;0.20;99.90;;;;;;4955182;28;20053;-61
2023/01/26 00:52:03;;;;;;;28.90;14.88;;;0.20;99.90;;;;;;4936904;28;20495;-62
2023/01/26 00:54:30;;;;;;;23.73;13.15;;;0.20;99.90;;;;;;4954866;28;20055;-62
2023/01/26 00:56:57;;;;;;;28.40;14.25;;;0.20;99.90;;;;;;4971759;28;20051;-63
2023/01/26 00:59:24;;;;;;;28.27;13.90;;;0.20;99.90;;;;;;4954412;28;20051;-62
2023/01/26 01:01:53;;;;;;;27.88;12.82;;;0.20;99.90;;;;;;4955519;28;20145;-63
2023/01/26 01:04:19;;;;;;;27.50;13.52;;;0.20;99.90;;;;;;4954790;28;20051;-63
2023/01/26 01:06:46;;;;;;;27.17;13.15;;;0.30;99.90;;;;;;4954492;28;20396;-63
2023/01/26 01:09:15;;;;;;;30.30;13.30;;;0.20;99.90;;;;;;4954896;28;20051;-62
2023/01/26 01:11:42;;;;;;;27.33;12.90;;;0.20;99.90;;;;;;4954744;28;20062;-63
2023/01/26 01:14:10;;;;;;;28.20;14.45;;;0.20;99.90;;;;;;4970595;28;20270;-62
2023/01/26 01:16:36;;;;;;;24.88;12.52;;;0.20;99.90;;;;;;4954873;28;20411;-62
2023/01/26 01:19:04;;;;;;;25.63;13.13;;;0.30;99.90;;;;;;4954000;28;20519;-63
2023/01/26 01:21:31;;;;;;;23.60;12.88;;;0.20;99.90;;;;;;4972439;28;20499;-62
2023/01/26 01:23:58;;;;;;;28.27;13.02;;;0.20;99.90;;;;;;4971440;28;20461;-63
2023/01/26 01:26:27;;;;;;;27.70;14.13;;;0.20;99.90;;;;;;4954064;28;20063;-62
2023/01/26 01:28:56;;;;;;;25.20;13.70;;;0.20;99.90;;;;;;4972013;28;20051;-63
2023/01/26 01:31:24;;;;;;;28.60;13.80;;;0.20;99.90;;;;;;4941987;28;20069;-62
2023/01/26 01:33:51;;;;;;;25.33;12.98;;;0.20;99.90;;;;;;4957913;28;20101;-62
2023/01/26 01:36:18;;;;;;;25.35;13.38;;;0.30;99.90;;;;;;4975596;28;20050;-63
2023/01/26 01:38:46;;;;;;;28.17;13.38;;;0.20;99.90;;;;;;4958237;28;20047;-61
2023/01/26 01:41:14;;;;;;;25.27;13.27;;;0.30;99.90;;;;;;4958188;28;20390;-62
2023/01/26 01:43:43;;;;;;;28.38;13.23;;;0.30;99.90;;;;;;4955061;28;20047;-63
2023/01/26 01:46:18;;;;;;;26.83;13.00;;;0.30;99.90;;;;;;4956856;28;20479;-62
2023/01/26 01:48:53;;;;;;;29.23;13.90;;;0.30;99.90;;;;;;4956399;28;20415;-62
2023/01/26 01:51:28;;;;;;;25.23;12.20;;;0.30;99.90;;;;;;4940357;28;20090;-62
2023/01/26 01:53:59;;;;;;;26.65;13.50;;;0.30;99.90;;;;;;4939694;28;20059;-61
2023/01/26 01:56:29;;;;;;;25.67;13.05;;;0.30;99.90;;;;;;4955986;28;20380;-61
2023/01/26 01:59:00;;;;;;;23.50;11.73;;;0.30;99.90;;;;;;4956719;28;20069;-62
2023/01/26 02:01:27;;;;;;;25.33;11.98;;;0.30;99.90;;;;;;4956462;28;20095;-63
2023/01/26 02:03:57;;;;;;;27.85;13.70;;;0.40;99.90;;;;;;4954338;28;20047;-62
2023/01/26 02:06:30;;;;;;;25.45;13.00;;;0.30;99.90;;;;;;4956782;28;20060;-62
2023/01/26 02:08:58;;;;;;;30.67;13.43;;;0.40;99.90;;;;;;4938289;28;20054;-65
2023/01/26 02:11:28;;;;;;;23.92;12.50;;;0.40;99.90;;;;;;4955764;28;20047;-64
2023/01/26 02:13:58;;;;;;;24.10;11.68;;;0.40;99.90;;;;;;4955902;29;20055;-64
2023/01/26 02:16:25;;;;;;;22.73;11.77;;;0.40;99.90;;;;;;4938802;29;20492;-64
2023/01/26 02:18:52;;;;;;;24.77;12.90;;;0.40;99.90;;;;;;4955642;28;20122;-64
2023/01/26 02:21:21;;;;;;;26.00;11.93;;;0.50;99.90;;;;;;4939039;28;20507;-64
2023/01/26 02:23:58;;;;;;;21.17;11.07;;;0.40;99.90;;;;;;4955139;29;20054;-64
2023/01/26 02:26:28;;;;;;;23.48;12.20;;;0.50;99.90;;;;;;4955694;29;20051;-64
2023/01/26 02:28:56;;;;;;;23.83;11.57;;;0.50;99.90;;;;;;4956035;29;20044;-64
2023/01/26 02:31:25;;;;;;;23.75;12.73;;;0.50;99.90;;;;;;4955008;29;20119;-64
2023/01/26 02:33:52;;;;;;;24.27;12.18;;;0.50;99.90;;;;;;4938263;29;20063;-64
2023/01/26 02:36:21;;;;;;;23.50;12.20;;;0.60;99.90;;;;;;4938694;29;20047;-64
2023/01/26 02:38:55;;;;;;;20.00;11.02;;;0.50;99.90;;;;;;4953995;29;20051;-64
2023/01/26 02:44:10;;;;;;;25.00;11.52;;;0.50;99.90;;;;;;4954401;28;20051;-64
2023/01/26 02:46:37;;;;;;;21.35;10.88;;;0.60;99.90;;;;;;4955428;29;20051;-63
2023/01/26 02:51:48;;;;;;;23.88;12.10;;;0.60;99.90;;;;;;4937568;29;20047;-63
2023/01/26 02:56:56;;;;;;;;;;;0.70;99.90;;;;;;4954274;29;20077;-64
2023/01/26 02:59:24;;;;;;;20.10;11.40;;;0.70;99.90;;;;;;4954435;29;20379;-64
2023/01/26 03:01:55;;;;;;;18.45;9.85;;;0.70;99.90;;;;;;4955045;29;20051;-64
2023/01/26 03:04:22;;;;;;;18.58;10.75;;;0.70;99.90;;;;;;4937128;29;20047;-64
2023/01/26 03:06:49;;;;;;;19.90;10.55;;;0.70;99.90;;;;;;4954188;29;20050;-63
2023/01/26 03:09:16;;;;;;;20.67;11.07;;;0.70;99.90;;;;;;4954473;29;20428;-63
2023/01/26 03:11:43;;;;;;;18.73;10.43;;;0.70;99.90;;;;;;4937494;29;20055;-63
2023/01/26 03:14:10;;;;;;;22.27;12.15;;;0.70;99.90;;;;;;4935676;29;20518;-64
2023/01/26 03:16:39;;;;;;;18.58;10.02;;;0.70;99.90;;;;;;4955230;29;20051;-63
2023/01/26 03:27:26;;;;;;;18.13;10.48;;;0.80;99.90;;;;;;4956070;28;20050;-64
2023/01/26 03:29:53;;;;;;;20.10;9.90;;;0.80;99.90;;;;;;4971846;28;20131;-63
2023/01/26 03:32:21;;;;;;;23.73;12.70;;;0.80;99.90;;;;;;4956685;28;20059;-64
2023/01/26 03:34:48;;;;;;;19.67;11.50;;;0.80;99.90;;;;;;4973107;28;20078;-64
2023/01/26 03:37:20;;;;;;;19.23;11.57;;;0.80;99.90;;;;;;4954248;28;20046;-64
2023/01/26 03:56:23;;;;;;;26.15;11.90;;;0.90;99.90;;;;;;4956514;28;20448;-63
2023/01/26 03:58:53;;;;;;;25.45;10.73;;;0.90;99.90;;;;;;4973617;28;20133;-63
2023/01/26 04:01:24;;;;;;;20.25;11.02;;;0.90;99.90;;;;;;4955336;28;20058;-62
2023/01/26 04:09:25;;;;;;;20.92;11.75;;;1.00;99.90;;;;;;4955227;28;20062;-63
2023/01/26 04:11:52;;;;;;;20.33;11.07;;;1.00;99.90;;;;;;4955973;28;20051;-62
2023/01/26 04:22:42;;;;;;;31.50;14.27;;;1.10;99.90;;;;;;4953825;28;20057;-62
2023/01/26 04:25:11;;;;;;;26.90;12.43;;;1.10;99.90;;;;;;4964627;28;20106;-61
2023/01/26 04:27:38;;;;;;;23.83;12.57;;;1.20;99.90;;;;;;4953238;28;20130;-63
2023/01/26 04:30:06;;;;;;;27.25;13.20;;;1.20;99.90;;;;;;4948736;29;20050;-62
2023/01/26 04:32:33;;;;;;;30.05;14.43;;;1.20;99.90;;;;;;4952113;29;20508;-61
2023/01/26 04:35:02;;;;;;;28.33;12.05;;;1.30;99.90;;;;;;4953563;29;20051;-63
2023/01/26 04:37:29;;;;;;;21.35;11.73;;;1.30;99.90;;;;;;4951870;29;20074;-62
2023/01/26 04:39:55;;;;;;;26.60;12.75;;;1.20;99.90;;;;;;4935509;29;20062;-62
2023/01/26 04:42:23;;;;;;;23.30;13.60;;;1.30;99.90;;;;;;4952388;29;20103;-62
2023/01/26 04:44:51;;;;;;;26.42;14.40;;;1.40;99.90;;;;;;4934381;29;20051;-62
2023/01/26 04:47:18;;;;;;;32.33;16.40;;;1.30;99.90;;;;;;4952436;28;20079;-61
2023/01/26 04:49:45;;;;;;;27.83;14.25;;;1.20;99.90;;;;;;4952434;29;20059;-62
2023/01/26 04:52:13;;;;;;;30.95;14.13;;;1.20;99.90;;;;;;4951896;28;20062;-61
2023/01/26 04:54:40;;;;;;;25.33;12.95;;;1.30;99.90;;;;;;4952983;29;20055;-61
2023/01/26 04:57:08;;;;;;;25.77;13.27;;;1.30;99.90;;;;;;4933986;29;20047;-61
2023/01/26 04:59:35;;;;;;;33.05;15.65;;;1.30;99.90;;;;;;4952728;28;20047;-62
2023/01/26 05:02:02;;;;;;;36.22;15.35;;;1.40;99.90;;;;;;4934440;29;20067;-63
2023/01/26 05:04:28;;;;;;;26.65;12.90;;;1.40;99.90;;;;;;4934952;28;20059;-63
2023/01/26 05:06:55;;;;;;;31.83;14.35;;;1.50;99.90;;;;;;4953687;28;20388;-62
2023/01/26 05:09:24;;;;;;;27.65;14.60;;;1.50;99.90;;;;;;4955805;29;20136;-63
2023/01/26 05:11:51;;;;;;;27.52;13.25;;;1.50;99.90;;;;;;4939975;29;20051;-63
2023/01/26 05:14:18;;;;;;;26.90;13.68;;;1.60;99.90;;;;;;4953976;29;20054;-62
2023/01/26 05:16:45;;;;;;;38.80;15.60;;;1.60;99.90;;;;;;4956599;29;20471;-62
2023/01/26 05:19:12;;;;;;;33.28;14.23;;;1.60;99.90;;;;;;4938584;29;20110;-63
2023/01/26 05:21:39;;;;;;;29.10;13.90;;;1.60;99.90;;;;;;4937959;29;20058;-62
2023/01/26 05:24:07;;;;;;;42.83;17.75;;;1.60;99.90;;;;;;4953316;29;20139;-62
2023/01/26 05:26:35;;;;;;;39.40;17.02;;;1.70;99.90;;;;;;4972080;28;20106;-62
2023/01/26 05:29:02;;;;;;;34.97;15.48;;;1.70;99.90;;;;;;4976055;28;20058;-63
2023/01/26 05:31:29;;;;;;;31.55;14.80;;;1.70;99.90;;;;;;4958469;28;20066;-62
2023/01/26 05:33:56;;;;;;;34.50;15.68;;;1.80;99.90;;;;;;4957756;28;20047;-61
2023/01/26 05:36:23;;;;;;;31.42;13.80;;;1.80;99.90;;;;;;4975735;28;20063;-62
2023/01/26 05:38:50;;;;;;;29.23;13.98;;;1.90;99.90;;;;;;4974951;28;20483;-62
2023/01/26 05:41:16;;;;;;;30.25;13.30;;;1.90;99.90;;;;;;4957570;28;20135;-62
2023/01/26 05:43:45;;;;;;;28.83;15.15;;;1.90;99.90;;;;;;4958530;28;20402;-62
2023/01/26 05:46:12;;;;;;;33.55;14.75;;;2.00;99.90;;;;;;4967160;28;20116;-63
2023/01/26 05:48:39;;;;;;;35.47;15.68;;;2.10;99.90;;;;;;4965054;28;20047;-62
2023/01/26 05:51:06;;;;;;;34.75;16.55;;;2.10;99.90;;;;;;4957512;28;20054;-63
2023/01/26 05:53:33;;;;;;;24.58;13.07;;;2.20;99.90;;;;;;4956566;28;20067;-62
2023/01/26 05:55:59;;;;;;;28.00;14.23;;;2.20;99.90;;;;;;4955914;28;20050;-62
2023/01/26 05:58:26;;;;;;;34.45;13.80;;;2.30;99.90;;;;;;4958320;28;20051;-62
2023/01/26 06:00:55;;;;;;;30.90;13.43;;;2.40;99.90;;;;;;4975238;28;20105;-62
2023/01/26 06:03:22;;;;;;;26.27;12.15;;;2.40;99.90;;;;;;4975122;28;20059;-62
2023/01/26 06:05:53;;;;;;;41.83;13.60;;;2.50;99.90;;;;;;4957304;28;20578;-62
2023/01/26 06:08:20;;;;;;;33.80;12.98;;;2.50;99.90;;;;;;4955225;28;20050;-63
2023/01/26 06:10:47;;;;;;;28.63;12.25;;;2.60;99.90;;;;;;4974930;28;20049;-63
2023/01/26 06:13:14;;;;;;;26.73;12.35;;;2.60;99.90;;;;;;4959710;28;20051;-63
2023/01/26 06:15:41;;;;;;;35.53;12.70;;;2.70;99.90;;;;;;4959915;28;20058;-62
2023/01/26 06:18:09;;;;;;;35.47;13.63;;;2.70;99.90;;;;;;4956448;28;20046;-62
2023/01/26 06:20:36;;;;;;;32.65;13.63;;;2.80;99.90;;;;;;4975820;28;20046;-62
2023/01/26 06:23:04;;;;;;;38.75;12.57;;;2.80;99.90;;;;;;4972236;28;20073;-62
2023/01/26 06:25:31;;;;;;;39.92;13.95;;;2.80;99.90;;;;;;4950398;28;20055;-61
2023/01/26 06:27:58;;;;;;;44.78;14.23;;;2.80;99.90;;;;;;4949432;29;20196;-61
2023/01/26 06:30:25;;;;;;;32.25;12.77;;;2.90;99.90;;;;;;4952576;29;20492;-61
2023/01/26 06:32:52;;;;;;;43.67;13.95;;;2.80;99.90;;;;;;4952737;29;20049;-61
2023/01/26 06:35:20;;;;;;;37.15;13.45;;;2.90;99.90;;;;;;4952954;29;20075;-61
2023/01/26 06:37:49;;;;;;;37.22;12.70;;;2.90;99.90;;;;;;4953462;29;20127;-61
2023/01/26 06:40:17;;;;;;;39.00;12.45;;;2.90;99.90;;;;;;4954207;29;20130;-60
2023/01/26 06:42:48;;;;;;;26.17;11.95;;;3.00;99.90;;;;;;4948148;29;20547;-61
2023/01/26 06:45:16;;;;;;;43.72;12.25;;;3.00;99.90;;;;;;4951403;29;20058;-62
2023/01/26 06:47:45;;;;;;;34.67;12.68;;;3.10;99.90;;;;;;4951320;29;20055;-62
2023/01/26 06:50:13;;;;;;;41.05;13.45;;;3.10;99.90;;;;;;4934334;29;20139;-64
2023/01/26 06:52:44;;;;;;;34.88;11.82;;;3.20;99.90;;;;;;4935380;29;20055;-62
2023/01/26 06:55:18;;;;;;;37.10;11.90;;;3.20;99.90;;;;;;4937435;29;20507;-61
2023/01/26 06:57:45;;;;;;;32.30;11.32;;;3.20;99.90;;;;;;4949662;28;20134;-61
2023/01/26 07:00:13;;;;;;;29.42;11.95;;;3.20;99.90;;;;;;4937345;29;20047;-63
2023/01/26 07:02:40;;;;;;;31.77;10.40;;;3.10;99.90;;;;;;4951800;28;20058;-62
2023/01/26 07:05:08;;;;;;;28.65;10.60;;;3.10;99.90;;;;;;4951926;29;20051;-61
2023/01/26 07:07:35;;;;;;;28.50;10.48;;;3.00;99.90;;;;;;4950366;28;20054;-64
2023/01/26 07:10:05;;;;;;;37.33;10.00;;;3.00;99.90;;;;;;4933664;29;20168;-61
2023/01/26 07:12:39;;;;;;;28.95;9.77;;;2.90;99.90;;;;;;4952372;29;20411;-62
2023/01/26 07:15:06;;;;;;;26.75;8.73;;;2.80;99.90;;;;;;4931131;29;20072;-62
2023/01/26 07:17:33;;;;;;;31.52;8.57;;;2.80;99.90;;;;;;4951701;29;20518;-61
2023/01/26 07:20:00;;;;;;;32.72;9.63;;;2.90;99.90;;;;;;4935568;29;20054;-62
2023/01/26 07:22:27;;;;;;;30.67;7.38;;;2.90;99.90;;;;;;4934754;29;20047;-62
2023/01/26 07:24:54;;;;;;;35.60;9.60;;;3.00;99.90;;;;;;4935921;28;20106;-62
2023/01/26 07:27:22;;;;;;;31.98;8.25;;;3.10;99.90;;;;;;4953731;28;20507;-62
2023/01/26 07:29:50;;;;;;;39.70;8.20;;;3.10;99.90;;;;;;4971475;28;20055;-62
2023/01/26 07:32:17;;;;;;;29.38;8.27;;;3.10;99.90;;;;;;4954453;28;20078;-62
2023/01/26 07:34:44;;;;;;;31.23;7.70;;;3.10;99.90;;;;;;4951568;28;20066;-61
2023/01/26 07:37:11;;;;;;;30.67;8.32;;;3.10;99.90;;;;;;4954901;28;20061;-61
2023/01/26 07:39:38;;;;;;;28.92;6.25;;;3.10;99.90;;;;;;4973806;28;20054;-61
2023/01/26 07:42:05;;;;;;;28.90;6.93;;;3.00;99.90;;;;;;4971734;28;20499;-63
2023/01/26 07:44:33;;;;;;;23.17;7.88;;;3.10;99.90;;;;;;4975514;28;20058;-62
2023/01/26 07:47:00;;;;;;;27.95;6.90;;;3.10;99.90;;;;;;4954806;28;20447;-62
2023/01/26 07:49:27;;;;;;;27.17;6.05;;;3.20;99.90;;;;;;4956384;28;20069;-62
2023/01/26 07:51:54;;;;;;;23.55;7.07;;;3.20;99.90;;;;;;4972866;28;20054;-62
2023/01/26 07:54:21;;;;;;;29.52;6.95;;;3.30;99.90;;;;;;4955729;28;20055;-61
2023/01/26 07:56:51;;;;;;;25.02;6.05;;;3.30;99.90;;;;;;4972816;28;20042;-62
2023/01/26 07:59:18;;;;;;;24.55;6.93;;;3.30;99.90;;;;;;4973250;28;20094;-62
2023/01/26 08:01:48;;;;;;;21.25;5.45;;;3.30;99.90;;;;;;4955539;28;20452;-63
2023/01/26 08:04:15;;;;;;;30.65;6.55;;;3.30;99.90;;;;;;4950999;28;20517;-62
2023/01/26 08:07:13;;;;;;;23.77;6.53;;;3.30;99.90;;;;;;4951423;28;20070;-63
2023/01/26 08:09:40;;;;;;;31.30;6.28;;;3.20;99.90;;;;;;4972046;28;20419;-63
2023/01/26 08:12:07;;;;;;;45.08;6.43;;;3.10;99.90;;;;;;4973063;28;20054;-62
2023/01/26 08:14:34;;;;;;;32.65;5.40;;;3.10;99.90;;;;;;4970125;28;20051;-62
2023/01/26 08:17:03;;;;;;;21.50;5.32;;;3.10;99.90;;;;;;4955863;28;20055;-62
2023/01/26 08:19:30;;;;;;;22.60;5.00;;;3.00;99.90;;;;;;4955186;28;20054;-63
2023/01/26 08:21:56;;;;;;;24.60;6.53;;;3.00;99.90;;;;;;4955488;28;20051;-62
2023/01/26 08:24:25;;;;;;;26.17;6.72;;;3.20;99.90;;;;;;4955779;28;20062;-62
2023/01/26 08:26:52;;;;;;;20.73;4.93;;;3.70;99.90;;;;;;4972337;28;20058;-61
2023/01/26 08:29:19;;;;;;;17.92;5.18;;;4.50;99.90;;;;;;4954283;28;20051;-62
2023/01/26 08:31:46;;;;;;;28.33;6.28;;;5.30;99.90;;;;;;4955233;28;20769;-62
2023/01/26 08:34:15;;;;;;;17.05;4.97;;;6.00;99.90;;;;;;4972317;28;20049;-61
2023/01/26 08:36:42;;;;;;;16.15;4.88;;;6.80;99.90;;;;;;4955010;28;20081;-61
2023/01/26 08:39:08;;;;;;;12.25;4.88;;;7.40;99.90;;;;;;4955071;28;20130;-60
2023/01/26 08:41:35;;;;;;;11.90;4.20;;;8.00;99.90;;;;;;4972573;28;20051;-61
2023/01/26 08:44:02;;;;;;;23.13;5.47;;;8.60;99.90;;;;;;4954715;28;20067;-62
2023/01/26 08:46:29;;;;;;;23.05;5.00;;;9.20;99.90;;;;;;4970549;28;20050;-62
2023/01/26 08:48:56;;;;;;;15.40;5.63;;;9.70;99.90;;;;;;4954942;28;20122;-61
2023/01/26 08:51:24;;;;;;;14.88;4.75;;;10.20;99.90;;;;;;4971901;28;20057;-62
2023/01/26 08:53:53;;;;;;;20.33;5.72;;;10.60;99.90;;;;;;4955236;28;20051;-61
2023/01/26 08:56:20;;;;;;;21.77;5.95;;;10.90;99.90;;;;;;4954335;28;20106;-62
2023/01/26 08:58:47;;;;;;;20.08;4.70;;;11.40;99.90;;;;;;4971969;28;20102;-62
2023/01/26 09:01:16;;;;;;;19.10;5.10;;;11.70;99.90;;;;;;4954488;28;20094;-61
2023/01/26 09:03:43;;;;;;;20.35;5.15;;;12.00;99.90;;;;;;4972069;28;20055;-62
2023/01/26 09:06:12;;;;;;;17.25;5.82;;;12.40;99.90;;;;;;4971966;28;20047;-62
2023/01/26 09:08:40;;;;;;;19.63;5.38;;;12.70;99.90;;;;;;4955097;28;20074;-62
2023/01/26 09:11:08;;;;;;;20.10;6.05;;;13.00;99.90;;;;;;4971995;28;20047;-62
2023/01/26 09:13:36;;;;;;;15.60;4.88;;;13.00;99.90;;;;;;4970495;28;20058;-61
2023/01/26 09:16:03;;;;;;;15.73;5.25;;;13.00;99.90;;;;;;4971600;28;20121;-62
2023/01/26 09:18:30;;;;;;;14.43;5.03;;;12.40;99.90;;;;;;4974066;28;20050;-62
2023/01/26 09:21:03;;;;;;;16.75;4.95;;;11.70;99.90;;;;;;4950312;28;20441;-62
2023/01/26 09:23:31;;;;;;;14.98;4.95;;;11.00;99.90;;;;;;4955175;28;20538;-62
2023/01/26 09:26:00;;;;;;;17.20;5.40;;;10.70;99.90;;;;;;4959955;28;20056;-61
2023/01/26 09:28:27;;;;;;;13.63;4.75;;;11.10;99.90;;;;;;4953190;29;20051;-62
2023/01/26 09:30:54;;;;;;;13.38;4.07;;;11.50;99.90;;;;;;4937882;28;20466;-62
2023/01/26 09:33:21;;;;;;;20.98;5.25;;;12.10;99.90;;;;;;4939040;28;20059;-62
2023/01/26 09:35:48;;;;;;;16.92;4.18;;;13.00;99.90;;;;;;4955645;28;20095;-61
2023/01/26 09:38:15;;;;;;;17.10;4.53;;;13.60;99.90;;;;;;4954787;28;20130;-62
2023/01/26 09:40:55;;;;;;;13.18;4.28;;;14.40;99.90;;;;;;4957805;28;20430;-62
2023/01/26 09:43:32;;;;;;;13.70;4.32;;;14.50;99.90;;;;;;4937562;28;20055;-62
2023/01/26 09:46:08;;;;;;;14.45;4.20;;;15.00;99.90;;;;;;4954634;28;20051;-62
2023/01/26 09:48:43;;;;;;;13.60;4.80;;;14.60;99.90;;;;;;4954764;28;20052;-62
2023/01/26 09:51:14;;;;;;;22.55;4.47;;;13.80;99.90;;;;;;4953674;28;20047;-62
2023/01/26 09:53:47;;;;;;;15.73;5.20;;;13.40;99.90;;;;;;4937578;29;20083;-62
2023/01/26 09:56:18;;;;;;;16.98;4.93;;;13.30;99.90;;;;;;4956812;29;20047;-63
2023/01/26 09:58:51;;;;;;;24.00;4.72;;;14.00;99.90;;;;;;4938940;29;20126;-61
2023/01/26 10:01:26;;;;;;;16.40;4.75;;;14.90;99.90;;;;;;4954760;29;20087;-62
2023/01/26 10:04:01;;;;;;;10.52;3.78;;;15.50;99.90;;;;;;4956272;29;20111;-62
2023/01/26 10:06:30;;;;;;;12.80;4.20;;;16.10;99.90;;;;;;4956427;29;20070;-62
2023/01/26 10:09:00;;;;;;;17.08;4.30;;;16.60;99.90;;;;;;4938029;29;20047;-62
2023/01/26 10:11:32;;;;;;;9.45;4.10;;;17.20;99.90;;;;;;4955823;29;20051;-62
2023/01/26 10:14:04;;;;;;;13.63;4.15;;;17.10;99.90;;;;;;4954071;29;20066;-62
2023/01/26 10:16:33;;;;;;;17.60;4.30;;;16.90;99.90;;;;;;4938503;29;20058;-62
2023/01/26 10:19:03;;;;;;;14.15;4.13;;;16.40;99.90;;;;;;4938676;29;20055;-62
2023/01/26 10:21:34;;;;;;;18.17;3.80;;;15.90;99.90;;;;;;4937872;29;20047;-61
2023/01/26 10:24:04;;;;;;;15.10;4.15;;;15.50;99.90;;;;;;4938220;29;20095;-61
2023/01/26 10:26:32;;;;;;;16.50;4.20;;;15.00;99.90;;;;;;4969223;28;20059;-62
2023/01/26 10:29:01;;;;;;;14.95;4.28;;;15.30;99.90;;;;;;4972633;28;20404;-62
2023/01/26 10:31:31;;;;;;;16.48;4.38;;;15.90;99.90;;;;;;4957623;28;20102;-63
2023/01/26 10:34:00;;;;;;;19.00;4.28;;;16.40;99.90;;;;;;4974498;28;20126;-63
2023/01/26 10:36:30;;;;;;;14.90;4.50;;;16.90;99.90;;;;;;4975843;28;20057;-63
2023/01/26 10:39:04;;;;;;;16.60;4.28;;;17.20;99.90;;;;;;4974868;28;20043;-63
2023/01/26 10:41:32;;;;;;;12.65;3.47;;;17.30;99.90;;;;;;4961921;28;20133;-62
2023/01/26 10:44:03;;;;;;;13.38;3.65;;;17.30;99.90;;;;;;4972728;28;20058;-63
2023/01/26 10:46:35;;;;;;;12.48;3.60;;;17.50;99.90;;;;;;4973172;28;20062;-62
2023/01/26 10:49:13;;;;;;;17.85;4.32;;;17.90;99.90;;;;;;4974165;28;20459;-62
2023/01/26 10:51:43;;;;;;;20.73;3.85;;;18.40;99.90;;;;;;4973098;28;20082;-62
2023/01/26 10:54:24;;;;;;;14.82;3.85;;;18.60;99.90;;;;;;4973509;28;20058;-62
2023/01/26 10:56:55;;;;;;;12.50;3.45;;;18.70;98.10;;;;;;4957043;28;20063;-63
2023/01/26 10:59:32;;;;;;;9.98;3.25;;;18.70;99.20;;;;;;4973250;28;20122;-63
2023/01/26 11:02:03;;;;;;;14.02;3.65;;;18.90;98.50;;;;;;4984537;28;20042;-62
2023/01/26 11:04:30;;;;;;;11.05;3.35;;;19.10;97.20;;;;;;4956014;28;20077;-62
2023/01/26 11:07:23;;;;;;;12.18;3.75;;;19.00;96.90;;;;;;4974409;28;20054;-63
2023/01/26 11:09:51;;;;;;;10.32;3.28;;;19.00;97.20;;;;;;4970972;28;20046;-63
2023/01/26 11:12:20;;;;;;;9.02;3.58;;;19.10;97.40;;;;;;4973146;28;20126;-63
2023/01/26 11:15:01;;;;;;;10.57;3.40;;;19.00;96.00;;;;;;4974302;28;20106;-63
2023/01/26 11:17:34;;;;;;;12.10;3.10;;;20.00;95.60;;;;;;4972795;28;20082;-63
2023/01/26 11:20:12;;;;;;;11.13;3.25;;;20.40;95.40;;;;;;4974946;28;20066;-64
2023/01/26 11:22:47;;;;;;;8.48;2.80;;;20.50;94.50;;;;;;4992002;28;20137;-64
2023/01/26 11:25:24;;;;;;;10.82;2.90;;;20.30;93.70;;;;;;4969180;28;20062;-64
2023/01/26 11:28:07;;;;;;;9.50;3.38;;;20.40;95.40;;;;;;4957211;28;20057;-64
2023/01/26 11:30:53;;;;;;;14.07;2.80;;;20.00;95.20;;;;;;4968346;28;20061;-64
2023/01/26 11:33:28;;;;;;;8.88;2.58;;;19.20;93.30;;;;;;4970909;28;20050;-64
2023/01/26 11:36:02;;;;;;;9.85;3.22;;;18.40;95.00;;;;;;4955530;28;20460;-63
2023/01/26 11:38:39;;;;;;;8.50;2.85;;;17.50;96.10;;;;;;4972947;28;20046;-63
2023/01/26 11:41:25;;;;;;;10.50;3.53;;;17.00;97.40;;;;;;4954234;28;20058;-63
2023/01/26 11:44:14;;;;;;;9.45;2.50;;;16.10;99.10;;;;;;4955832;28;20055;-64
2023/01/26 11:46:54;;;;;;;10.23;3.22;;;15.30;99.90;;;;;;4960274;28;20051;-64
2023/01/26 11:49:49;;;;;;;15.05;3.55;;;14.70;99.90;;;;;;4956376;28;20411;-63
2023/01/26 11:52:24;;;;;;;10.68;3.20;;;14.10;99.90;;;;;;4954471;28;20050;-63
2023/01/26 11:55:06;;;;;;;15.00;3.95;;;13.40;99.90;;;;;;4969847;28;20388;-62
2023/01/26 11:57:43;;;;;;;14.25;3.30;;;12.90;99.90;;;;;;4979025;28;20058;-63
2023/01/26 12:00:17;;;;;;;18.25;4.13;;;12.70;99.90;;;;;;4971645;28;20053;-63
2023/01/26 12:02:50;;;;;;;12.43;3.22;;;12.20;99.90;;;;;;4972003;28;20075;-63
2023/01/26 12:05:22;;;;;;;12.07;3.53;;;12.00;99.90;;;;;;4972648;28;20049;-63
2023/01/26 12:07:54;;;;;;;10.07;3.50;;;11.70;99.90;;;;;;4971535;28;20105;-63
2023/01/26 12:10:27;;;;;;;15.70;3.25;;;11.50;99.90;;;;;;4980033;28;20047;-63
2023/01/26 12:12:59;;;;;;;14.70;3.20;;;11.40;99.90;;;;;;4954994;28;20047;-63
2023/01/26 12:15:32;;;;;;;13.32;3.28;;;11.20;99.90;;;;;;4954397;28;20476;-63
2023/01/26 12:18:10;;;;;;;17.30;3.75;;;11.20;99.90;;;;;;4956071;28;20105;-63
2023/01/26 12:20:42;;;;;;;10.80;3.50;;;11.20;99.90;;;;;;4969769;28;20550;-63
2023/01/26 12:23:19;;;;;;;14.25;3.47;;;11.20;99.90;;;;;;4971871;28;20120;-63
2023/01/26 12:25:50;;;;;;;24.48;3.95;;;11.00;99.90;;;;;;4960894;28;20094;-63
2023/01/26 12:28:21;;;;;;;12.90;3.30;;;10.80;99.90;;;;;;4951143;28;20055;-63
2023/01/26 12:31:02;;;;;;;13.40;2.92;;;10.80;99.90;;;;;;4934032;29;20571;-63
2023/01/26 12:33:32;;;;;;;14.45;2.97;;;11.00;99.90;;;;;;4952866;29;20107;-63
2023/01/26 12:36:10;;;;;;;15.85;3.13;;;11.00;99.90;;;;;;4933732;29;20055;-63
2023/01/26 12:38:49;;;;;;;7.82;2.63;;;10.90;99.90;;;;;;4951644;29;20059;-62
2023/01/26 12:41:26;;;;;;;15.30;3.13;;;10.70;99.90;;;;;;4951940;28;20543;-63
2023/01/26 12:44:12;;;;;;;12.00;2.67;;;10.70;99.90;;;;;;4951738;29;20413;-62
2023/01/26 12:46:44;;;;;;;9.98;2.08;;;10.80;99.90;;;;;;4947721;29;20054;-63
2023/01/26 12:49:20;;;;;;;13.27;3.85;;;10.80;99.90;;;;;;4951778;28;20496;-63
2023/01/26 12:51:50;;;;;;;8.00;2.40;;;10.50;99.90;;;;;;4947504;28;20563;-63
2023/01/26 12:54:20;;;;;;;;;;;10.30;99.90;;;;;;4952312;29;20059;-63
2023/01/26 12:56:51;;;;;;;7.67;2.43;;;10.10;99.90;;;;;;4933729;29;20366;-63
2023/01/26 12:59:23;;;;;;;6.28;2.03;;;10.00;99.90;;;;;;4953091;29;20043;-64
2023/01/26 13:01:50;;;;;;;6.97;2.42;;;10.00;99.90;;;;;;4944247;29;20078;-63
2023/01/26 13:04:19;;;;;;;12.05;2.72;;;9.90;99.90;;;;;;4917487;29;20051;-63
2023/01/26 13:07:02;;;;;;;8.20;2.58;;;9.80;99.90;;;;;;4917498;29;20052;-63
2023/01/26 13:09:29;;;;;;;13.00;2.78;;;9.80;99.90;;;;;;4935759;29;20058;-63
2023/01/26 13:11:57;;;;;;;9.63;2.85;;;9.90;99.90;;;;;;4952856;29;20134;-63
2023/01/26 13:14:57;;;;;;;8.52;2.17;;;9.90;99.90;;;;;;4953418;29;20075;-63
2023/01/26 13:17:57;;;;;;;8.05;2.42;;;9.80;99.90;;;;;;4952804;29;20070;-63
2023/01/26 13:20:50;;;;;;;11.20;2.03;;;9.70;99.90;;;;;;4935852;29;20490;-63
2023/01/26 13:23:50;;;;;;;12.02;3.30;;;9.60;99.90;;;;;;4953365;29;20051;-62
2023/01/26 13:26:41;;;;;;;9.80;2.60;;;9.60;99.90;;;;;;4961252;28;20062;-63
2023/01/26 13:29:28;;;;;;;12.20;3.60;;;9.50;99.90;;;;;;4973236;28;20078;-63
2023/01/26 13:31:56;;;;;;;8.65;3.40;;;9.40;99.90;;;;;;4957294;28;20058;-63
2023/01/26 13:34:28;;;;;;;14.82;4.15;;;9.30;99.90;;;;;;4974399;28;20050;-63
2023/01/26 13:37:05;;;;;;;17.88;3.45;;;9.20;99.90;;;;;;4973744;28;20735;-62
2023/01/26 13:39:36;;;;;;;13.18;3.45;;;9.10;99.90;;;;;;4962628;28;20053;-63
2023/01/26 13:42:13;;;;;;;14.77;3.22;;;9.10;99.90;;;;;;4958924;28;20053;-63
2023/01/26 13:44:46;;;;;;;10.70;3.03;;;9.00;99.90;;;;;;4975381;28;20062;-63
2023/01/26 13:47:17;;;;;;;14.00;3.40;;;8.90;99.90;;;;;;4957485;28;20063;-63